< < Back
Terminal Aerodrome Forecast


Current Version              Previous Versions:   1  2  3  4  5  6  7  8  9  

Terminal Aerodrome Forecast

823
FTUS42 KFFC 300957 AAB
TAFATL
TAF AMD
KATL 300957Z 3010/0112 08006KT P6SM SCT070 BKN250
     FM301500 17006KT P6SM SCT035 SCT070
     FM301800 19010KT P6SM BKN050 PROB30 3019/3024 4SM -TSRA BR
      BKN030CB
     FM010000 17005KT P6SM SCT060 BKN250=



Latest METAR

608
SAUS70 KWBC 301500 RRA
MTRATL
METAR KATL 301452Z 17009KT 10SM SCT100 BKN220 27/16 A3000 RMK AO2 SLP148
T02670156 51012


USA.gov is the U.S. government's official web portal to all federal, state and local government web resources and services.